sensor_id;sensor_type;location;lat;lon;timestamp;P1;durP1;ratioP1;P2;durP2;ratioP2
67841;SDS011;54642;59.126;37.876;2022-08-19T00:01:48;7.20;;;5.95;;
67841;SDS011;54642;59.126;37.876;2022-08-19T00:04:16;7.60;;;5.97;;
67841;SDS011;54642;59.126;37.876;2022-08-19T00:06:45;7.90;;;6.10;;
67841;SDS011;54642;59.126;37.876;2022-08-19T00:09:13;9.15;;;5.80;;
67841;SDS011;54642;59.126;37.876;2022-08-19T00:11:40;6.50;;;5.22;;
67841;SDS011;54642;59.126;37.876;2022-08-19T00:14:07;8.55;;;4.90;;
67841;SDS011;54642;59.126;37.876;2022-08-19T00:16:35;7.35;;;5.53;;
67841;SDS011;54642;59.126;37.876;2022-08-19T00:19:02;8.18;;;5.00;;
67841;SDS011;54642;59.126;37.876;2022-08-19T00:21:28;7.93;;;5.32;;
67841;SDS011;54642;59.126;37.876;2022-08-19T00:23:54;7.47;;;5.93;;
67841;SDS011;54642;59.126;37.876;2022-08-19T00:26:25;6.50;;;5.22;;
67841;SDS011;54642;59.126;37.876;2022-08-19T00:28:52;8.27;;;5.78;;
67841;SDS011;54642;59.126;37.876;2022-08-19T00:31:18;9.23;;;5.28;;
67841;SDS011;54642;59.126;37.876;2022-08-19T00:33:45;8.07;;;5.82;;
67841;SDS011;54642;59.126;37.876;2022-08-19T00:36:13;8.93;;;5.00;;
67841;SDS011;54642;59.126;37.876;2022-08-19T00:38:39;9.93;;;5.70;;
67841;SDS011;54642;59.126;37.876;2022-08-19T00:41:09;7.15;;;5.50;;
67841;SDS011;54642;59.126;37.876;2022-08-19T00:43:39;9.25;;;5.65;;
67841;SDS011;54642;59.126;37.876;2022-08-19T00:46:06;7.05;;;5.32;;
67841;SDS011;54642;59.126;37.876;2022-08-19T00:48:32;9.23;;;6.38;;
67841;SDS011;54642;59.126;37.876;2022-08-19T00:50:59;8.35;;;5.80;;
67841;SDS011;54642;59.126;37.876;2022-08-19T00:53:27;8.90;;;5.63;;
67841;SDS011;54642;59.126;37.876;2022-08-19T00:55:56;9.52;;;5.50;;
67841;SDS011;54642;59.126;37.876;2022-08-19T00:58:27;10.07;;;5.97;;
67841;SDS011;54642;59.126;37.876;2022-08-19T01:00:55;10.40;;;5.60;;
67841;SDS011;54642;59.126;37.876;2022-08-19T01:03:21;6.05;;;4.40;;
67841;SDS011;54642;59.126;37.876;2022-08-19T01:05:47;7.68;;;4.97;;
67841;SDS011;54642;59.126;37.876;2022-08-19T01:08:16;8.23;;;6.65;;
67841;SDS011;54642;59.126;37.876;2022-08-19T01:10:50;9.75;;;5.97;;
67841;SDS011;54642;59.126;37.876;2022-08-19T01:13:20;8.95;;;6.18;;
67841;SDS011;54642;59.126;37.876;2022-08-19T01:15:50;8.07;;;6.07;;
67841;SDS011;54642;59.126;37.876;2022-08-19T01:18:20;9.00;;;5.78;;
67841;SDS011;54642;59.126;37.876;2022-08-19T01:20:47;7.35;;;5.40;;
67841;SDS011;54642;59.126;37.876;2022-08-19T01:23:13;8.77;;;5.85;;
67841;SDS011;54642;59.126;37.876;2022-08-19T01:25:41;8.23;;;5.55;;
67841;SDS011;54642;59.126;37.876;2022-08-19T01:28:20;8.07;;;5.38;;
67841;SDS011;54642;59.126;37.876;2022-08-19T01:30:48;10.00;;;6.40;;
67841;SDS011;54642;59.126;37.876;2022-08-19T01:33:14;9.60;;;6.15;;
67841;SDS011;54642;59.126;37.876;2022-08-19T01:35:41;8.07;;;4.90;;
67841;SDS011;54642;59.126;37.876;2022-08-19T01:38:08;8.23;;;5.25;;
67841;SDS011;54642;59.126;37.876;2022-08-19T01:40:44;10.43;;;5.13;;
67841;SDS011;54642;59.126;37.876;2022-08-19T01:43:10;7.07;;;5.45;;
67841;SDS011;54642;59.126;37.876;2022-08-19T01:45:36;8.30;;;6.22;;
67841;SDS011;54642;59.126;37.876;2022-08-19T01:48:05;8.52;;;5.78;;
67841;SDS011;54642;59.126;37.876;2022-08-19T01:50:35;7.35;;;5.72;;
67841;SDS011;54642;59.126;37.876;2022-08-19T01:53:02;9.43;;;5.80;;
67841;SDS011;54642;59.126;37.876;2022-08-19T01:55:31;8.75;;;6.18;;
67841;SDS011;54642;59.126;37.876;2022-08-19T01:57:58;13.80;;;5.40;;
67841;SDS011;54642;59.126;37.876;2022-08-19T02:00:28;7.35;;;5.90;;
67841;SDS011;54642;59.126;37.876;2022-08-19T02:02:56;7.85;;;5.75;;
67841;SDS011;54642;59.126;37.876;2022-08-19T02:05:22;10.07;;;6.20;;
67841;SDS011;54642;59.126;37.876;2022-08-19T02:07:48;14.05;;;9.82;;
67841;SDS011;54642;59.126;37.876;2022-08-19T02:10:16;9.27;;;6.80;;
67841;SDS011;54642;59.126;37.876;2022-08-19T02:12:45;10.55;;;8.05;;
67841;SDS011;54642;59.126;37.876;2022-08-19T02:15:11;8.45;;;6.45;;
67841;SDS011;54642;59.126;37.876;2022-08-19T02:17:37;11.52;;;7.15;;
67841;SDS011;54642;59.126;37.876;2022-08-19T02:20:05;11.55;;;6.63;;
67841;SDS011;54642;59.126;37.876;2022-08-19T02:22:32;8.50;;;6.97;;
67841;SDS011;54642;59.126;37.876;2022-08-19T02:24:58;8.75;;;6.25;;
67841;SDS011;54642;59.126;37.876;2022-08-19T02:27:23;10.55;;;6.60;;
67841;SDS011;54642;59.126;37.876;2022-08-19T02:29:51;13.98;;;8.05;;
67841;SDS011;54642;59.126;37.876;2022-08-19T02:32:17;9.77;;;6.65;;
67841;SDS011;54642;59.126;37.876;2022-08-19T02:34:45;9.77;;;6.13;;
67841;SDS011;54642;59.126;37.876;2022-08-19T02:37:12;10.15;;;6.90;;
67841;SDS011;54642;59.126;37.876;2022-08-19T02:39:57;9.55;;;6.15;;
67841;SDS011;54642;59.126;37.876;2022-08-19T02:42:24;10.57;;;7.93;;
67841;SDS011;54642;59.126;37.876;2022-08-19T02:44:50;10.50;;;6.45;;
67841;SDS011;54642;59.126;37.876;2022-08-19T02:47:17;11.80;;;7.43;;
67841;SDS011;54642;59.126;37.876;2022-08-19T02:49:44;14.57;;;10.27;;
67841;SDS011;54642;59.126;37.876;2022-08-19T02:52:11;17.55;;;12.88;;
67841;SDS011;54642;59.126;37.876;2022-08-19T02:54:37;10.63;;;6.85;;
67841;SDS011;54642;59.126;37.876;2022-08-19T02:57:04;11.27;;;7.28;;
67841;SDS011;54642;59.126;37.876;2022-08-19T02:59:30;14.93;;;8.13;;
67841;SDS011;54642;59.126;37.876;2022-08-19T03:01:57;15.52;;;9.77;;
67841;SDS011;54642;59.126;37.876;2022-08-19T03:04:23;16.15;;;9.05;;
67841;SDS011;54642;59.126;37.876;2022-08-19T03:06:49;10.70;;;7.45;;
67841;SDS011;54642;59.126;37.876;2022-08-19T03:09:17;13.98;;;9.93;;
67841;SDS011;54642;59.126;37.876;2022-08-19T03:11:44;13.13;;;8.02;;
67841;SDS011;54642;59.126;37.876;2022-08-19T03:14:11;9.75;;;7.40;;
67841;SDS011;54642;59.126;37.876;2022-08-19T03:16:42;10.45;;;6.28;;
67841;SDS011;54642;59.126;37.876;2022-08-19T03:19:14;15.20;;;9.75;;
67841;SDS011;54642;59.126;37.876;2022-08-19T03:21:43;9.68;;;6.35;;
67841;SDS011;54642;59.126;37.876;2022-08-19T03:24:10;11.25;;;7.20;;
67841;SDS011;54642;59.126;37.876;2022-08-19T03:26:41;10.77;;;6.13;;
67841;SDS011;54642;59.126;37.876;2022-08-19T03:29:08;12.40;;;6.68;;
67841;SDS011;54642;59.126;37.876;2022-08-19T03:31:36;8.82;;;5.60;;
67841;SDS011;54642;59.126;37.876;2022-08-19T03:34:04;10.32;;;7.97;;
67841;SDS011;54642;59.126;37.876;2022-08-19T03:36:30;10.13;;;6.00;;
67841;SDS011;54642;59.126;37.876;2022-08-19T03:38:57;11.80;;;5.38;;
67841;SDS011;54642;59.126;37.876;2022-08-19T03:41:29;15.40;;;9.68;;
67841;SDS011;54642;59.126;37.876;2022-08-19T03:43:56;16.15;;;6.97;;
67841;SDS011;54642;59.126;37.876;2022-08-19T03:46:25;12.85;;;6.00;;
67841;SDS011;54642;59.126;37.876;2022-08-19T03:48:56;21.20;;;6.82;;
67841;SDS011;54642;59.126;37.876;2022-08-19T03:51:26;8.63;;;6.40;;
67841;SDS011;54642;59.126;37.876;2022-08-19T03:53:56;12.50;;;6.95;;
67841;SDS011;54642;59.126;37.876;2022-08-19T03:56:23;12.88;;;6.18;;
67841;SDS011;54642;59.126;37.876;2022-08-19T03:58:53;17.30;;;6.90;;
67841;SDS011;54642;59.126;37.876;2022-08-19T04:01:21;11.30;;;6.40;;
67841;SDS011;54642;59.126;37.876;2022-08-19T04:03:48;10.50;;;6.00;;
67841;SDS011;54642;59.126;37.876;2022-08-19T04:08:51;16.23;;;6.85;;
67841;SDS011;54642;59.126;37.876;2022-08-19T04:11:21;12.48;;;6.50;;
67841;SDS011;54642;59.126;37.876;2022-08-19T04:13:50;10.63;;;5.80;;
67841;SDS011;54642;59.126;37.876;2022-08-19T04:16:18;11.43;;;6.63;;
67841;SDS011;54642;59.126;37.876;2022-08-19T04:18:45;12.05;;;6.00;;
67841;SDS011;54642;59.126;37.876;2022-08-19T04:21:17;9.88;;;7.07;;
67841;SDS011;54642;59.126;37.876;2022-08-19T04:23:45;6.82;;;5.20;;
67841;SDS011;54642;59.126;37.876;2022-08-19T04:26:15;12.90;;;6.30;;
67841;SDS011;54642;59.126;37.876;2022-08-19T04:28:44;11.07;;;6.78;;
67841;SDS011;54642;59.126;37.876;2022-08-19T04:31:44;9.52;;;6.43;;
67841;SDS011;54642;59.126;37.876;2022-08-19T04:34:05;11.05;;;6.05;;
67841;SDS011;54642;59.126;37.876;2022-08-19T04:36:36;8.32;;;6.40;;
67841;SDS011;54642;59.126;37.876;2022-08-19T04:39:06;9.52;;;6.90;;
67841;SDS011;54642;59.126;37.876;2022-08-19T04:41:34;8.55;;;6.15;;
67841;SDS011;54642;59.126;37.876;2022-08-19T04:44:18;8.13;;;6.07;;
67841;SDS011;54642;59.126;37.876;2022-08-19T04:46:45;7.93;;;5.68;;
67841;SDS011;54642;59.126;37.876;2022-08-19T04:49:13;9.98;;;6.05;;
67841;SDS011;54642;59.126;37.876;2022-08-19T04:51:41;8.63;;;5.60;;
67841;SDS011;54642;59.126;37.876;2022-08-19T04:54:07;10.52;;;5.38;;
67841;SDS011;54642;59.126;37.876;2022-08-19T04:56:34;8.27;;;5.32;;
67841;SDS011;54642;59.126;37.876;2022-08-19T04:59:00;10.68;;;6.10;;
67841;SDS011;54642;59.126;37.876;2022-08-19T05:01:29;8.80;;;6.15;;
67841;SDS011;54642;59.126;37.876;2022-08-19T05:03:57;10.32;;;5.72;;
67841;SDS011;54642;59.126;37.876;2022-08-19T05:06:25;9.38;;;6.65;;
67841;SDS011;54642;59.126;37.876;2022-08-19T05:08:51;11.10;;;5.50;;
67841;SDS011;54642;59.126;37.876;2022-08-19T05:11:29;8.35;;;6.60;;
67841;SDS011;54642;59.126;37.876;2022-08-19T05:13:57;9.13;;;6.95;;
67841;SDS011;54642;59.126;37.876;2022-08-19T05:16:23;8.82;;;7.15;;
67841;SDS011;54642;59.126;37.876;2022-08-19T05:18:51;9.65;;;5.10;;
67841;SDS011;54642;59.126;37.876;2022-08-19T05:21:35;12.10;;;6.80;;
67841;SDS011;54642;59.126;37.876;2022-08-19T05:24:21;18.42;;;9.30;;
67841;SDS011;54642;59.126;37.876;2022-08-19T05:26:49;24.33;;;11.45;;
67841;SDS011;54642;59.126;37.876;2022-08-19T05:29:18;25.48;;;8.18;;
67841;SDS011;54642;59.126;37.876;2022-08-19T05:31:46;17.50;;;7.95;;
67841;SDS011;54642;59.126;37.876;2022-08-19T05:34:14;23.60;;;10.00;;
67841;SDS011;54642;59.126;37.876;2022-08-19T05:36:43;16.27;;;7.63;;
67841;SDS011;54642;59.126;37.876;2022-08-19T05:39:12;9.70;;;6.97;;
67841;SDS011;54642;59.126;37.876;2022-08-19T05:41:44;14.63;;;7.05;;
67841;SDS011;54642;59.126;37.876;2022-08-19T05:44:11;15.63;;;6.90;;
67841;SDS011;54642;59.126;37.876;2022-08-19T05:46:38;12.90;;;6.03;;
67841;SDS011;54642;59.126;37.876;2022-08-19T05:49:05;13.60;;;7.38;;
67841;SDS011;54642;59.126;37.876;2022-08-19T05:51:32;12.38;;;7.25;;
67841;SDS011;54642;59.126;37.876;2022-08-19T05:54:00;18.92;;;7.57;;
67841;SDS011;54642;59.126;37.876;2022-08-19T05:56:27;10.68;;;6.15;;
67841;SDS011;54642;59.126;37.876;2022-08-19T05:58:56;10.40;;;5.90;;
67841;SDS011;54642;59.126;37.876;2022-08-19T06:01:24;16.70;;;6.85;;
67841;SDS011;54642;59.126;37.876;2022-08-19T06:03:51;17.48;;;6.60;;
67841;SDS011;54642;59.126;37.876;2022-08-19T06:06:17;10.25;;;5.93;;
67841;SDS011;54642;59.126;37.876;2022-08-19T06:08:43;14.13;;;6.53;;
67841;SDS011;54642;59.126;37.876;2022-08-19T06:14:00;9.98;;;7.30;;
67841;SDS011;54642;59.126;37.876;2022-08-19T06:16:29;12.30;;;7.18;;
67841;SDS011;54642;59.126;37.876;2022-08-19T06:19:03;11.18;;;6.97;;
67841;SDS011;54642;59.126;37.876;2022-08-19T06:21:32;21.52;;;9.05;;
67841;SDS011;54642;59.126;37.876;2022-08-19T06:23:59;12.48;;;7.78;;
67841;SDS011;54642;59.126;37.876;2022-08-19T06:26:25;17.00;;;8.35;;
67841;SDS011;54642;59.126;37.876;2022-08-19T06:28:53;15.13;;;9.05;;
67841;SDS011;54642;59.126;37.876;2022-08-19T06:31:20;14.20;;;7.68;;
67841;SDS011;54642;59.126;37.876;2022-08-19T06:33:48;11.52;;;7.68;;
67841;SDS011;54642;59.126;37.876;2022-08-19T06:36:22;11.88;;;7.30;;
67841;SDS011;54642;59.126;37.876;2022-08-19T06:38:55;18.17;;;9.40;;
67841;SDS011;54642;59.126;37.876;2022-08-19T06:41:22;13.43;;;8.88;;
67841;SDS011;54642;59.126;37.876;2022-08-19T06:43:48;14.18;;;8.38;;
67841;SDS011;54642;59.126;37.876;2022-08-19T06:46:14;17.63;;;10.77;;
67841;SDS011;54642;59.126;37.876;2022-08-19T06:48:42;20.35;;;12.23;;
67841;SDS011;54642;59.126;37.876;2022-08-19T06:51:08;20.90;;;10.15;;
67841;SDS011;54642;59.126;37.876;2022-08-19T06:53:34;18.90;;;10.45;;
67841;SDS011;54642;59.126;37.876;2022-08-19T06:56:00;17.27;;;12.15;;
67841;SDS011;54642;59.126;37.876;2022-08-19T06:58:30;17.83;;;10.68;;
67841;SDS011;54642;59.126;37.876;2022-08-19T07:01:01;19.98;;;12.75;;
67841;SDS011;54642;59.126;37.876;2022-08-19T07:03:29;17.80;;;11.88;;
67841;SDS011;54642;59.126;37.876;2022-08-19T07:05:58;14.68;;;10.27;;
67841;SDS011;54642;59.126;37.876;2022-08-19T07:08:28;17.77;;;11.32;;
67841;SDS011;54642;59.126;37.876;2022-08-19T07:10:54;16.52;;;10.30;;
67841;SDS011;54642;59.126;37.876;2022-08-19T07:13:21;17.83;;;11.40;;
67841;SDS011;54642;59.126;37.876;2022-08-19T07:15:48;18.50;;;9.35;;
67841;SDS011;54642;59.126;37.876;2022-08-19T07:18:18;17.38;;;9.60;;
67841;SDS011;54642;59.126;37.876;2022-08-19T07:23:13;16.75;;;10.05;;
67841;SDS011;54642;59.126;37.876;2022-08-19T07:25:39;15.43;;;10.00;;
67841;SDS011;54642;59.126;37.876;2022-08-19T07:28:05;16.75;;;9.95;;
67841;SDS011;54642;59.126;37.876;2022-08-19T07:30:32;11.65;;;8.27;;
67841;SDS011;54642;59.126;37.876;2022-08-19T07:33:01;14.80;;;7.80;;
67841;SDS011;54642;59.126;37.876;2022-08-19T07:35:26;13.15;;;8.73;;
67841;SDS011;54642;59.126;37.876;2022-08-19T07:37:54;12.80;;;6.90;;
67841;SDS011;54642;59.126;37.876;2022-08-19T07:40:19;13.38;;;7.68;;
67841;SDS011;54642;59.126;37.876;2022-08-19T07:42:46;11.43;;;6.30;;
67841;SDS011;54642;59.126;37.876;2022-08-19T07:45:12;21.77;;;5.85;;
67841;SDS011;54642;59.126;37.876;2022-08-19T07:47:38;20.05;;;6.40;;
67841;SDS011;54642;59.126;37.876;2022-08-19T07:50:12;12.18;;;5.97;;
67841;SDS011;54642;59.126;37.876;2022-08-19T07:52:39;9.60;;;4.68;;
67841;SDS011;54642;59.126;37.876;2022-08-19T07:55:06;14.52;;;5.40;;
67841;SDS011;54642;59.126;37.876;2022-08-19T07:57:35;8.70;;;6.00;;
67841;SDS011;54642;59.126;37.876;2022-08-19T08:00:04;7.93;;;5.18;;
67841;SDS011;54642;59.126;37.876;2022-08-19T08:02:37;10.40;;;4.40;;
67841;SDS011;54642;59.126;37.876;2022-08-19T08:05:04;7.57;;;4.80;;
67841;SDS011;54642;59.126;37.876;2022-08-19T08:07:48;6.20;;;4.60;;
67841;SDS011;54642;59.126;37.876;2022-08-19T08:10:33;9.05;;;4.38;;
67841;SDS011;54642;59.126;37.876;2022-08-19T08:12:59;6.05;;;5.00;;
67841;SDS011;54642;59.126;37.876;2022-08-19T08:15:25;7.68;;;4.75;;
67841;SDS011;54642;59.126;37.876;2022-08-19T08:17:51;7.30;;;4.75;;
67841;SDS011;54642;59.126;37.876;2022-08-19T08:20:17;5.70;;;4.07;;
67841;SDS011;54642;59.126;37.876;2022-08-19T08:22:44;8.63;;;4.13;;
67841;SDS011;54642;59.126;37.876;2022-08-19T08:25:30;7.70;;;4.03;;
67841;SDS011;54642;59.126;37.876;2022-08-19T08:27:56;10.40;;;3.97;;
67841;SDS011;54642;59.126;37.876;2022-08-19T08:30:27;7.03;;;4.03;;
67841;SDS011;54642;59.126;37.876;2022-08-19T08:32:54;5.78;;;4.22;;
67841;SDS011;54642;59.126;37.876;2022-08-19T08:35:23;6.13;;;3.92;;
67841;SDS011;54642;59.126;37.876;2022-08-19T08:37:50;5.68;;;4.22;;
67841;SDS011;54642;59.126;37.876;2022-08-19T08:43:23;6.72;;;4.07;;
67841;SDS011;54642;59.126;37.876;2022-08-19T08:45:59;7.28;;;3.60;;
67841;SDS011;54642;59.126;37.876;2022-08-19T08:51:32;4.50;;;2.85;;
67841;SDS011;54642;59.126;37.876;2022-08-19T08:54:04;4.88;;;2.95;;
67841;SDS011;54642;59.126;37.876;2022-08-19T08:56:32;5.05;;;3.50;;
67841;SDS011;54642;59.126;37.876;2022-08-19T08:58:59;6.57;;;2.75;;
67841;SDS011;54642;59.126;37.876;2022-08-19T09:01:35;5.82;;;3.40;;
67841;SDS011;54642;59.126;37.876;2022-08-19T09:04:11;5.18;;;3.33;;
67841;SDS011;54642;59.126;37.876;2022-08-19T09:15:03;5.03;;;2.60;;
67841;SDS011;54642;59.126;37.876;2022-08-19T09:17:32;8.15;;;2.70;;
67841;SDS011;54642;59.126;37.876;2022-08-19T09:22:40;6.22;;;3.28;;
67841;SDS011;54642;59.126;37.876;2022-08-19T09:25:11;7.45;;;4.35;;
67841;SDS011;54642;59.126;37.876;2022-08-19T09:27:39;8.15;;;3.58;;
67841;SDS011;54642;59.126;37.876;2022-08-19T09:30:08;7.47;;;3.35;;
67841;SDS011;54642;59.126;37.876;2022-08-19T09:32:40;4.60;;;2.40;;
67841;SDS011;54642;59.126;37.876;2022-08-19T09:35:11;5.88;;;2.38;;
67841;SDS011;54642;59.126;37.876;2022-08-19T09:37:41;5.70;;;2.28;;
67841;SDS011;54642;59.126;37.876;2022-08-19T09:40:09;6.60;;;2.55;;
67841;SDS011;54642;59.126;37.876;2022-08-19T09:42:39;5.00;;;2.83;;
67841;SDS011;54642;59.126;37.876;2022-08-19T09:45:11;4.75;;;3.00;;
67841;SDS011;54642;59.126;37.876;2022-08-19T09:47:38;6.35;;;2.70;;
67841;SDS011;54642;59.126;37.876;2022-08-19T09:50:05;4.95;;;3.05;;
67841;SDS011;54642;59.126;37.876;2022-08-19T09:52:37;3.30;;;2.70;;
67841;SDS011;54642;59.126;37.876;2022-08-19T09:55:04;5.47;;;2.90;;
67841;SDS011;54642;59.126;37.876;2022-08-19T09:57:34;4.97;;;3.42;;
67841;SDS011;54642;59.126;37.876;2022-08-19T10:00:00;4.32;;;3.33;;
67841;SDS011;54642;59.126;37.876;2022-08-19T10:02:33;5.53;;;3.00;;
67841;SDS011;54642;59.126;37.876;2022-08-19T10:05:00;4.18;;;3.05;;
67841;SDS011;54642;59.126;37.876;2022-08-19T10:07:44;9.32;;;3.20;;
67841;SDS011;54642;59.126;37.876;2022-08-19T10:10:10;7.43;;;3.63;;
67841;SDS011;54642;59.126;37.876;2022-08-19T10:12:37;26.92;;;6.22;;
67841;SDS011;54642;59.126;37.876;2022-08-19T10:15:04;5.50;;;3.00;;
67841;SDS011;54642;59.126;37.876;2022-08-19T10:17:31;4.07;;;2.47;;
67841;SDS011;54642;59.126;37.876;2022-08-19T10:19:59;21.17;;;6.03;;
67841;SDS011;54642;59.126;37.876;2022-08-19T10:22:25;9.10;;;4.18;;
67841;SDS011;54642;59.126;37.876;2022-08-19T10:24:51;5.38;;;2.33;;
67841;SDS011;54642;59.126;37.876;2022-08-19T10:27:17;7.85;;;2.40;;
67841;SDS011;54642;59.126;37.876;2022-08-19T10:29:43;5.25;;;2.20;;
67841;SDS011;54642;59.126;37.876;2022-08-19T10:32:09;7.85;;;2.90;;
67841;SDS011;54642;59.126;37.876;2022-08-19T10:34:36;5.75;;;2.65;;
67841;SDS011;54642;59.126;37.876;2022-08-19T10:37:03;6.57;;;2.53;;
67841;SDS011;54642;59.126;37.876;2022-08-19T10:39:31;6.63;;;2.50;;
67841;SDS011;54642;59.126;37.876;2022-08-19T10:41:58;8.70;;;3.42;;
67841;SDS011;54642;59.126;37.876;2022-08-19T10:44:24;5.40;;;2.65;;
67841;SDS011;54642;59.126;37.876;2022-08-19T10:46:53;5.80;;;2.35;;
67841;SDS011;54642;59.126;37.876;2022-08-19T10:49:20;5.10;;;2.67;;
67841;SDS011;54642;59.126;37.876;2022-08-19T10:51:46;10.43;;;2.75;;
67841;SDS011;54642;59.126;37.876;2022-08-19T10:54:30;7.38;;;2.88;;
67841;SDS011;54642;59.126;37.876;2022-08-19T10:57:16;6.20;;;3.25;;
67841;SDS011;54642;59.126;37.876;2022-08-19T10:59:42;7.38;;;3.00;;
67841;SDS011;54642;59.126;37.876;2022-08-19T11:02:08;5.88;;;3.08;;
67841;SDS011;54642;59.126;37.876;2022-08-19T11:04:39;4.65;;;2.28;;
67841;SDS011;54642;59.126;37.876;2022-08-19T11:07:05;3.03;;;2.20;;
67841;SDS011;54642;59.126;37.876;2022-08-19T11:09:35;5.70;;;2.90;;
67841;SDS011;54642;59.126;37.876;2022-08-19T11:12:07;7.95;;;2.80;;
67841;SDS011;54642;59.126;37.876;2022-08-19T11:14:34;4.95;;;2.65;;
67841;SDS011;54642;59.126;37.876;2022-08-19T11:17:01;4.88;;;2.88;;
67841;SDS011;54642;59.126;37.876;2022-08-19T11:19:29;5.50;;;3.03;;
67841;SDS011;54642;59.126;37.876;2022-08-19T11:21:56;5.93;;;2.40;;
67841;SDS011;54642;59.126;37.876;2022-08-19T11:24:23;5.90;;;3.15;;
67841;SDS011;54642;59.126;37.876;2022-08-19T11:26:51;5.47;;;2.90;;
67841;SDS011;54642;59.126;37.876;2022-08-19T11:29:20;4.45;;;2.83;;
67841;SDS011;54642;59.126;37.876;2022-08-19T11:31:48;4.30;;;3.20;;
67841;SDS011;54642;59.126;37.876;2022-08-19T11:34:16;5.70;;;2.85;;
67841;SDS011;54642;59.126;37.876;2022-08-19T11:36:45;3.63;;;2.03;;
67841;SDS011;54642;59.126;37.876;2022-08-19T11:39:14;5.00;;;2.83;;
67841;SDS011;54642;59.126;37.876;2022-08-19T11:41:41;4.47;;;2.28;;
67841;SDS011;54642;59.126;37.876;2022-08-19T11:44:08;4.30;;;2.90;;
67841;SDS011;54642;59.126;37.876;2022-08-19T11:46:34;4.03;;;2.33;;
67841;SDS011;54642;59.126;37.876;2022-08-19T11:49:02;8.68;;;3.15;;
67841;SDS011;54642;59.126;37.876;2022-08-19T11:51:30;5.68;;;2.75;;
67841;SDS011;54642;59.126;37.876;2022-08-19T11:53:56;5.43;;;2.95;;
67841;SDS011;54642;59.126;37.876;2022-08-19T11:56:24;5.82;;;2.40;;
67841;SDS011;54642;59.126;37.876;2022-08-19T11:58:51;4.90;;;2.42;;
67841;SDS011;54642;59.126;37.876;2022-08-19T12:01:18;6.28;;;2.55;;
67841;SDS011;54642;59.126;37.876;2022-08-19T12:03:46;4.32;;;2.85;;
67841;SDS011;54642;59.126;37.876;2022-08-19T12:06:15;6.88;;;2.95;;
67841;SDS011;54642;59.126;37.876;2022-08-19T12:08:44;4.55;;;2.67;;
67841;SDS011;54642;59.126;37.876;2022-08-19T12:11:11;4.88;;;2.53;;
67841;SDS011;54642;59.126;37.876;2022-08-19T12:13:39;5.78;;;2.63;;
67841;SDS011;54642;59.126;37.876;2022-08-19T12:16:09;6.28;;;2.70;;
67841;SDS011;54642;59.126;37.876;2022-08-19T12:18:38;4.45;;;2.22;;
67841;SDS011;54642;59.126;37.876;2022-08-19T12:21:07;8.05;;;2.78;;
67841;SDS011;54642;59.126;37.876;2022-08-19T12:23:35;4.20;;;2.40;;
67841;SDS011;54642;59.126;37.876;2022-08-19T12:26:02;6.60;;;2.38;;
67841;SDS011;54642;59.126;37.876;2022-08-19T12:28:29;5.22;;;2.35;;
67841;SDS011;54642;59.126;37.876;2022-08-19T12:30:56;6.80;;;4.53;;
67841;SDS011;54642;59.126;37.876;2022-08-19T12:33:22;5.32;;;2.80;;
67841;SDS011;54642;59.126;37.876;2022-08-19T12:35:51;5.07;;;2.25;;
67841;SDS011;54642;59.126;37.876;2022-08-19T12:38:17;6.28;;;2.55;;
67841;SDS011;54642;59.126;37.876;2022-08-19T12:40:47;8.25;;;3.03;;
67841;SDS011;54642;59.126;37.876;2022-08-19T12:43:15;4.30;;;2.42;;
67841;SDS011;54642;59.126;37.876;2022-08-19T12:45:41;6.45;;;2.45;;
67841;SDS011;54642;59.126;37.876;2022-08-19T12:48:08;5.47;;;2.78;;
67841;SDS011;54642;59.126;37.876;2022-08-19T12:50:34;5.15;;;2.63;;
67841;SDS011;54642;59.126;37.876;2022-08-19T12:53:00;5.47;;;2.67;;
67841;SDS011;54642;59.126;37.876;2022-08-19T12:55:26;8.80;;;3.72;;
67841;SDS011;54642;59.126;37.876;2022-08-19T12:57:54;7.55;;;3.85;;
67841;SDS011;54642;59.126;37.876;2022-08-19T13:00:23;5.13;;;3.15;;
67841;SDS011;54642;59.126;37.876;2022-08-19T13:02:52;7.95;;;3.15;;
67841;SDS011;54642;59.126;37.876;2022-08-19T13:05:22;6.63;;;2.97;;
67841;SDS011;54642;59.126;37.876;2022-08-19T13:07:52;4.13;;;2.50;;
67841;SDS011;54642;59.126;37.876;2022-08-19T13:10:23;6.22;;;2.95;;
67841;SDS011;54642;59.126;37.876;2022-08-19T13:12:53;4.18;;;2.75;;
67841;SDS011;54642;59.126;37.876;2022-08-19T13:15:20;4.53;;;2.20;;
67841;SDS011;54642;59.126;37.876;2022-08-19T13:17:48;5.50;;;3.20;;
67841;SDS011;54642;59.126;37.876;2022-08-19T13:20:16;5.78;;;2.88;;
67841;SDS011;54642;59.126;37.876;2022-08-19T13:22:44;3.83;;;2.55;;
67841;SDS011;54642;59.126;37.876;2022-08-19T13:25:11;4.55;;;2.40;;
67841;SDS011;54642;59.126;37.876;2022-08-19T13:27:39;4.75;;;2.30;;
67841;SDS011;54642;59.126;37.876;2022-08-19T13:30:06;6.22;;;2.58;;
67841;SDS011;54642;59.126;37.876;2022-08-19T13:32:52;8.18;;;2.20;;
67841;SDS011;54642;59.126;37.876;2022-08-19T13:35:39;6.97;;;2.60;;
67841;SDS011;54642;59.126;37.876;2022-08-19T13:38:12;5.93;;;3.00;;
67841;SDS011;54642;59.126;37.876;2022-08-19T13:40:41;5.15;;;2.10;;
67841;SDS011;54642;59.126;37.876;2022-08-19T13:43:07;4.38;;;2.45;;
67841;SDS011;54642;59.126;37.876;2022-08-19T13:45:35;9.13;;;2.38;;
67841;SDS011;54642;59.126;37.876;2022-08-19T13:48:06;6.15;;;1.88;;
67841;SDS011;54642;59.126;37.876;2022-08-19T13:50:34;2.67;;;2.03;;
67841;SDS011;54642;59.126;37.876;2022-08-19T13:53:06;7.00;;;2.05;;
67841;SDS011;54642;59.126;37.876;2022-08-19T13:55:33;3.40;;;1.90;;
67841;SDS011;54642;59.126;37.876;2022-08-19T13:57:59;6.03;;;2.30;;
67841;SDS011;54642;59.126;37.876;2022-08-19T14:00:32;9.05;;;2.58;;
67841;SDS011;54642;59.126;37.876;2022-08-19T14:03:01;5.70;;;2.38;;
67841;SDS011;54642;59.126;37.876;2022-08-19T14:05:28;3.15;;;2.15;;
67841;SDS011;54642;59.126;37.876;2022-08-19T14:07:55;4.35;;;1.90;;
67841;SDS011;54642;59.126;37.876;2022-08-19T14:10:21;3.50;;;1.88;;
67841;SDS011;54642;59.126;37.876;2022-08-19T14:12:49;4.65;;;2.30;;
67841;SDS011;54642;59.126;37.876;2022-08-19T14:15:17;6.97;;;2.20;;
67841;SDS011;54642;59.126;37.876;2022-08-19T14:17:44;4.65;;;2.25;;
67841;SDS011;54642;59.126;37.876;2022-08-19T14:20:12;4.25;;;2.55;;
67841;SDS011;54642;59.126;37.876;2022-08-19T14:22:39;3.95;;;1.90;;
67841;SDS011;54642;59.126;37.876;2022-08-19T14:25:10;6.78;;;2.13;;
67841;SDS011;54642;59.126;37.876;2022-08-19T14:27:40;3.47;;;1.90;;
67841;SDS011;54642;59.126;37.876;2022-08-19T14:30:08;3.78;;;2.45;;
67841;SDS011;54642;59.126;37.876;2022-08-19T14:32:36;5.10;;;2.20;;
67841;SDS011;54642;59.126;37.876;2022-08-19T14:35:03;5.13;;;2.38;;
67841;SDS011;54642;59.126;37.876;2022-08-19T14:37:30;6.55;;;2.72;;
67841;SDS011;54642;59.126;37.876;2022-08-19T14:39:56;7.85;;;2.17;;
67841;SDS011;54642;59.126;37.876;2022-08-19T14:42:21;11.55;;;3.03;;
67841;SDS011;54642;59.126;37.876;2022-08-19T14:44:47;5.43;;;2.80;;
67841;SDS011;54642;59.126;37.876;2022-08-19T14:47:13;5.95;;;2.95;;
67841;SDS011;54642;59.126;37.876;2022-08-19T14:49:39;7.30;;;1.85;;
67841;SDS011;54642;59.126;37.876;2022-08-19T14:52:05;7.78;;;2.83;;
67841;SDS011;54642;59.126;37.876;2022-08-19T14:54:31;6.82;;;2.15;;
67841;SDS011;54642;59.126;37.876;2022-08-19T14:56:57;4.18;;;2.50;;
67841;SDS011;54642;59.126;37.876;2022-08-19T14:59:23;5.75;;;2.20;;
67841;SDS011;54642;59.126;37.876;2022-08-19T15:01:49;4.82;;;2.30;;